Latest Coastal Weather Observations for Holmes Reef

IDQ60701

Issued at 1:21 am EST Friday 4 September 2015 (issued every 10 minutes, with the page automatically refreshed every 10 minutes)

About coastal observations | Map of coastal stations | Coastal observations for QLD | Marine services | Other Formats
Station Details ID: 200732 Name: HOLMES REEF Lat: -16.47 Lon: 147.87 Height: 1.9 m
Data from the previous 72 hours. | See also: Recent months at Holmes Reef
Date/Time
EST
Temp

°C
Wind Pressure Rain
since 9am
mm
Weather Cloud Vis
km
Sea
Height
m
Swell
Dir
 
Speed
knots
Gust
knots
hPa Trend Height
m
Period
s
Dir
04/01:15am 24.1 CALM 0 2 1015.9 - - - - - - - - -
04/01:00am 24.0 CALM 0 2 1016.3 - - - - - - - - -
04/12:30am 24.1 CALM 0 3 1016.7 - - - - - - - - -
04/12:15am 24.2 N 1 - 1016.5 - - - - - - - - -
04/12:00am 24.2 N 5 11 1016.9 - - - - - - - - -
 
Date/Time
EST
Temp

°C
Wind Pressure Rain
since 9am
mm
Weather Cloud Vis
km
Sea
Height
m
Swell
Dir
 
Speed
knots
Gust
knots
hPa Trend Height
m
Period
s
Dir
03/11:30pm 24.2 N 10 12 1017.0 - - - - - - - - -
03/11:15pm 24.3 N 9 - 1016.8 - - - - - - - - -
03/11:00pm 24.2 NNE 10 11 1017.2 - - - - - - - - -
03/10:30pm 24.2 NNE 8 9 1017.3 - - - - - - - - -
03/10:15pm 24.4 NNE 8 - 1017.0 - - - - - - - - -
03/10:00pm 24.3 NNE 8 9 1017.5 - - - - - - - - -
03/09:30pm 24.3 NE 7 8 1017.5 - - - - - - - - -
03/09:15pm 24.2 NE 7 - 1017.2 - - - - - - - - -
03/09:00pm 24.3 NE 6 7 1017.5 - - - - - - - - -
03/08:30pm 24.4 NE 6 7 1017.3 - - - - - - - - -
03/08:15pm 24.4 NE 6 - 1016.9 - - - - - - - - -
03/08:00pm 24.3 ENE 5 6 1017.1 - - - - - - - - -
03/07:30pm 24.2 ENE 4 5 1016.9 - - - - - - - - -
03/07:15pm 24.3 NE 4 - 1016.4 - - - - - - - - -
03/07:00pm 24.3 NNE 5 7 1016.5 - - - - - - - - -
03/06:30pm 24.3 NNE 6 8 1016.0 - - - - - - - - -
03/06:15pm 24.4 NNE 6 - 1015.6 - - - - - - - - -
03/06:00pm 24.5 N 6 7 1015.7 - - - - - - - - -
03/05:30pm 25.3 N 5 6 1015.7 - - - - - - - - -
03/05:15pm 25.9 ENE 3 - 1015.3 - - - - - - - - -
03/05:00pm 26.8 SSE 3 4 1015.9 - - - - - - - - -
03/04:30pm 26.8 S 3 4 1015.8 - - - - - - - - -
03/04:15pm 26.7 SSE 4 - 1015.5 - - - - - - - - -
03/04:00pm 26.3 SSE 3 4 1015.8 - - - - - - - - -
03/03:30pm 26.3 S 5 6 1016.0 - - - - - - - - -
03/03:15pm 26.2 S 5 - 1015.7 - - - - - - - - -
03/03:00pm 26.0 S 5 7 1016.1 - - - - - - - - -
03/02:30pm 26.0 S 4 6 1016.3 - - - - - - - - -
03/02:15pm 26.1 S 2 - 1016.2 - - - - - - - - -
03/02:00pm 25.8 CALM 0 3 1016.7 - - - - - - - - -
03/01:30pm 25.8 SSW 1 5 1017.1 - - - - - - - - -
03/01:15pm 26.0 CALM 0 - 1017.0 - - - - - - - - -
03/01:00pm 25.6 SW 3 5 1017.5 - - - - - - - - -
03/12:30pm 25.1 SW 3 5 1017.9 - - - - - - - - -
03/12:15pm 24.9 NNW 3 - 1017.5 - - - - - - - - -
03/12:00pm 24.7 N 5 7 1017.8 - - - - - - - - -
03/11:30am 24.5 N 7 8 1018.3 - - - - - - - - -
03/11:15am 24.5 N 7 - 1018.1 - - - - - - - - -
03/11:00am 24.6 N 8 9 1018.4 - - - - - - - - -
03/10:30am 24.5 N 8 10 1018.9 - - - - - - - - -
03/10:15am 24.7 N 8 - 1018.6 - - - - - - - - -
03/10:00am 24.6 N 7 8 1018.9 - - - - - - - - -
03/09:30am 24.4 N 8 9 1018.9 - - - - - - - - -
03/09:15am 24.5 N 9 - 1018.5 - - - - - - - - -
03/09:00am 24.4 N 9 11 1018.8 - - - - - - - - -
03/08:30am 24.4 N 8 10 1018.7 - - - - - - - - -
03/08:15am 24.5 N 8 - 1018.2 - - - - - - - - -
03/08:00am 24.5 N 9 11 1018.3 - - - - - - - - -
03/07:30am 24.3 NNE 7 9 1018.1 - - - - - - - - -
03/07:15am 24.2 N 8 - 1017.5 - - - - - - - - -
03/07:00am 24.1 NNE 10 11 1017.6 - - - - - - - - -
03/06:30am 23.8 NNE 9 11 1017.4 - - - - - - - - -
03/06:15am 24.0 NNE 10 - 1016.9 - - - - - - - - -
03/06:00am 23.8 N 12 14 1016.8 - - - - - - - - -
03/05:30am 23.9 N 12 14 1016.5 - - - - - - - - -
03/05:15am 23.8 N 13 - 1016.2 - - - - - - - - -
03/05:00am 23.9 NNE 12 14 1016.3 - - - - - - - - -
03/04:30am 24.0 NNE 12 14 1016.2 - - - - - - - - -
03/04:15am 23.8 N 13 - 1015.9 - - - - - - - - -
03/04:00am 23.8 NNE 13 15 1016.1 - - - - - - - - -
03/03:30am 23.8 NE 13 14 1016.2 - - - - - - - - -
03/03:15am 23.8 NE 12 - 1015.8 - - - - - - - - -
03/03:00am 23.9 NE 12 14 1016.2 - - - - - - - - -
03/02:30am 23.9 NE 13 14 1016.2 - - - - - - - - -
03/02:15am 23.9 NNE 12 - 1015.9 - - - - - - - - -
03/02:00am 24.2 NNE 12 15 1016.1 - - - - - - - - -
03/01:30am 23.9 NE 14 15 1016.2 - - - - - - - - -
03/01:15am 24.2 NE 14 - 1015.9 - - - - - - - - -
03/01:00am 23.9 NE 14 16 1016.3 - - - - - - - - -
03/12:30am 24.0 NE 14 16 1016.4 - - - - - - - - -
03/12:15am 24.0 NE 14 - 1016.2 - - - - - - - - -
03/12:00am 23.9 NE 15 16 1016.7 - - - - - - - - -
 
Date/Time
EST
Temp

°C
Wind Pressure Rain
since 9am
mm
Weather Cloud Vis
km
Sea
Height
m
Swell
Dir
 
Speed
knots
Gust
knots
hPa Trend Height
m
Period
s
Dir
02/11:30pm 24.2 NE 14 15 1016.8 - - - - - - - - -
02/11:15pm 24.0 NE 13 - 1016.6 - - - - - - - - -
02/11:00pm 24.0 NE 13 15 1017.0 - - - - - - - - -
02/10:30pm 24.2 NE 12 13 1017.1 - - - - - - - - -
02/10:15pm 24.3 NE 12 - 1016.9 - - - - - - - - -
02/10:00pm 24.1 NE 12 15 1017.2 - - - - - - - - -
02/09:30pm 24.2 NE 11 13 1017.4 - - - - - - - - -
02/09:15pm 24.3 NE 10 - 1017.0 - - - - - - - - -
02/09:00pm 24.2 NE 10 12 1017.3 - - - - - - - - -
02/08:30pm 24.2 NE 9 11 1017.2 - - - - - - - - -
02/08:15pm 24.3 NE 9 - 1017.0 - - - - - - - - -
02/08:00pm 24.2 NNE 9 11 1017.2 - - - - - - - - -
02/07:30pm 24.2 NE 9 11 1016.9 - - - - - - - - -
02/07:15pm 24.3 NE 8 - 1016.5 - - - - - - - - -
02/07:00pm 24.3 NE 8 9 1016.7 - - - - - - - - -
02/06:30pm 24.3 NE 9 10 1016.4 - - - - - - - - -
02/06:15pm 24.4 NE 8 - 1016.0 - - - - - - - - -
02/06:00pm 24.5 NE 8 9 1016.2 - - - - - - - - -
02/05:30pm 24.6 CALM 0 2 1016.1 - - - - - - - - -
02/05:15pm 24.8 NNE 6 - 1015.7 - - - - - - - - -
02/05:00pm 24.6 NE 8 9 1016.0 - - - - - - - - -
02/04:30pm 24.6 NE 8 11 1015.7 - - - - - - - - -
02/04:15pm 24.5 NE 7 - 1015.3 - - - - - - - - -
02/04:00pm 24.6 NE 8 9 1015.5 - - - - - - - - -
02/03:30pm 24.6 ENE 8 9 1015.5 - - - - - - - - -
02/03:15pm 24.6 ENE 7 - 1015.2 - - - - - - - - -
02/03:00pm 24.7 ENE 7 8 1015.7 - - - - - - - - -
02/02:30pm 24.6 ENE 8 9 1016.2 - - - - - - - - -
02/02:15pm 24.6 ENE 8 - 1016.2 - - - - - - - - -
02/02:00pm 24.7 ENE 7 8 1016.7 - - - - - - - - -
02/01:30pm 24.7 ENE 7 8 1017.0 - - - - - - - - -
02/01:15pm 24.9 ENE 7 - 1017.0 - - - - - - - - -
02/01:00pm 24.8 ENE 8 9 1017.6 - - - - - - - - -
02/12:30pm 24.8 NE 8 9 1017.9 - - - - - - - - -
02/12:15pm 24.8 ENE 9 - 1017.8 - - - - - - - - -
02/12:00pm 24.9 NE 8 10 1018.4 - - - - - - - - -
02/11:30am 24.9 NE 9 10 1018.9 - - - - - - - - -
02/11:15am 24.9 NE 10 - 1018.8 - - - - - - - - -
02/11:00am 25.0 NE 9 11 1019.3 - - - - - - - - -
02/10:30am 25.0 NE 9 10 1019.5 - - - - - - - - -
02/10:15am 24.9 NE 9 - 1019.3 - - - - - - - - -
02/10:00am 25.0 NE 10 11 1019.7 - - - - - - - - -
02/09:30am 24.8 NE 10 11 1019.7 - - - - - - - - -
02/09:15am 24.8 NE 11 - 1019.3 - - - - - - - - -
02/09:00am 24.7 NE 12 13 1019.5 - - - - - - - - -
02/08:30am 24.7 NNE 11 13 1019.1 - - - - - - - - -
02/08:15am 24.9 NE 11 - 1018.7 - - - - - - - - -
02/08:00am 24.9 NE 12 13 1018.9 - - - - - - - - -
02/07:30am 24.4 NE 11 13 1018.5 - - - - - - - - -
02/07:15am 24.8 NNE 12 - 1018.0 - - - - - - - - -
02/07:00am 24.6 NNE 12 13 1018.0 - - - - - - - - -
02/06:30am 24.4 NE 11 13 1017.5 - - - - - - - - -
02/06:15am 24.3 NNE 13 - 1017.0 - - - - - - - - -
02/06:00am 24.3 NNE 13 14 1017.0 - - - - - - - - -
02/05:30am 24.3 NNE 12 14 1016.5 - - - - - - - - -
02/05:15am 24.4 NNE 12 - 1016.1 - - - - - - - - -
02/05:00am 24.2 NNE 13 15 1016.3 - - - - - - - - -
02/04:30am 24.2 NNE 12 14 1016.3 - - - - - - - - -
02/04:15am 24.3 NNE 12 - 1016.0 - - - - - - - - -
02/04:00am 24.3 NNE 13 15 1016.3 - - - - - - - - -
02/03:30am 24.2 NNE 11 12 1016.4 - - - - - - - - -
02/03:15am 24.2 NE 12 - 1016.1 - - - - - - - - -
02/03:00am 24.4 NE 12 14 1016.4 - - - - - - - - -
02/02:30am 24.5 NNE 12 14 1016.3 - - - - - - - - -
02/02:15am 24.4 NNE 13 - 1016.0 - - - - - - - - -
02/02:00am 24.4 NNE 13 16 1016.3 - - - - - - - - -
02/01:30am 24.4 NNE 15 17 1016.3 - - - - - - - - -
02/01:15am 24.4 NNE 15 - 1016.0 - - - - - - - - -
02/01:00am 24.5 NNE 16 18 1016.3 - - - - - - - - -
02/12:30am 24.5 NNE 14 16 1016.3 - - - - - - - - -
02/12:15am 24.6 NNE 14 - 1016.0 - - - - - - - - -
02/12:00am 24.6 NNE 14 17 1016.2 - - - - - - - - -
 
Date/Time
EST
Temp

°C
Wind Pressure Rain
since 9am
mm
Weather Cloud Vis
km
Sea
Height
m
Swell
Dir
 
Speed
knots
Gust
knots
hPa Trend Height
m
Period
s
Dir
01/11:30pm 24.4 NNE 15 18 1016.3 - - - - - - - - -
01/11:15pm 24.5 NNE 16 - 1016.0 - - - - - - - - -
01/11:00pm 24.6 NNE 15 17 1016.2 - - - - - - - - -
01/10:30pm 24.5 NNE 15 17 1016.1 - - - - - - - - -
01/10:15pm 24.5 NNE 14 - 1015.7 - - - - - - - - -
01/10:00pm 24.6 NNE 14 17 1016.1 - - - - - - - - -
01/09:30pm 24.6 NNE 13 15 1016.1 - - - - - - - - -
01/09:15pm 24.6 NNE 13 - 1015.8 - - - - - - - - -
01/09:00pm 24.6 NNE 13 15 1016.0 - - - - - - - - -
01/08:30pm 24.5 NE 12 14 1015.8 - - - - - - - - -
01/08:15pm 24.6 NE 11 - 1015.4 - - - - - - - - -
01/08:00pm 24.5 NE 11 13 1015.5 - - - - - - - - -
01/07:30pm 24.5 NE 11 12 1015.1 - - - - - - - - -
01/07:15pm 24.7 NE 10 - 1014.6 - - - - - - - - -
01/07:00pm 24.5 NE 10 11 1014.7 - - - - - - - - -
01/06:30pm 24.5 NE 9 10 1014.4 - - - - - - - - -
01/06:15pm 24.5 NE 7 - 1014.1 - - - - - - - - -
01/06:00pm 24.7 CALM 0 2 1014.3 - - - - - - - - -
01/05:30pm 24.7 NE 8 10 1014.2 - - - - - - - - -
01/05:15pm 24.6 NE 9 - 1013.9 - - - - - - - - -
01/05:00pm 24.8 NE 9 11 1014.1 - - - - - - - - -
01/04:30pm 24.9 NE 8 9 1014.0 - - - - - - - - -
01/04:15pm 24.9 NE 9 - 1013.7 - - - - - - - - -
01/04:00pm 24.9 NNE 9 11 1013.9 - - - - - - - - -
01/03:30pm 24.7 NE 9 11 1014.0 - - - - - - - - -
01/03:15pm 24.9 NE 9 - 1013.7 - - - - - - - - -
01/03:00pm 24.7 NE 8 10 1014.1 - - - - - - - - -
01/02:30pm 24.8 NE 8 10 1014.4 - - - - - - - - -
01/02:15pm 24.6 NE 7 - 1014.3 - - - - - - - - -
01/02:00pm 24.9 NE 7 9 1014.8 - - - - - - - - -
01/01:30pm 24.7 ENE 6 8 1015.2 - - - - - - - - -
01/01:15pm 24.7 ENE 7 - 1015.1 - - - - - - - - -
01/01:00pm 24.7 ENE 7 8 1015.5 - - - - - - - - -
01/12:30pm 24.7 NE 8 9 1016.0 - - - - - - - - -
01/12:15pm 24.7 NE 8 - 1015.8 - - - - - - - - -
01/12:00pm 24.7 NE 8 10 1016.4 - - - - - - - - -
01/11:30am 24.8 ENE 6 7 1016.9 - - - - - - - - -
01/11:15am 24.9 ENE 7 - 1016.8 - - - - - - - - -
01/11:00am 24.8 ENE 8 9 1017.3 - - - - - - - - -
01/10:30am 24.9 NE 7 8 1017.6 - - - - - - - - -
01/10:15am 25.0 NE 7 - 1017.5 - - - - - - - - -
01/10:00am 24.7 ENE 8 10 1017.9 - - - - - - - - -
01/09:30am 24.8 ENE 7 9 1017.9 - - - - - - - - -
01/09:15am 24.9 ENE 6 - 1017.4 - - - - - - - - -
01/09:00am 25.1 ENE 7 8 1017.6 - - - - - - - - -
01/08:30am 25.1 ENE 6 7 1017.4 - - - - - - - - -
01/08:15am 25.0 ENE 7 - 1017.0 - - - - - - - - -
01/08:00am 25.0 ENE 7 8 1017.0 - - - - - - - - -
01/07:30am 24.7 ENE 8 10 1016.6 - - - - - - - - -
01/07:15am 24.9 NE 7 - 1016.1 - - - - - - - - -
01/07:00am 24.5 NE 7 8 1016.2 - - - - - - - - -
01/06:30am 24.0 NE 7 8 1015.9 - - - - - - - - -
01/06:15am 24.1 NE 7 - 1015.4 - - - - - - - - -
01/06:00am 24.0 NE 6 8 1015.6 - - - - - - - - -
01/05:30am 24.0 NE 8 9 1015.3 - - - - - - - - -
01/05:15am 24.0 NE 8 - 1014.9 - - - - - - - - -
01/05:00am 23.9 ENE 8 9 1015.1 - - - - - - - - -
01/04:30am 23.9 NE 8 9 1014.8 - - - - - - - - -
01/04:15am 24.0 NE 8 - 1014.4 - - - - - - - - -
01/04:00am 23.9 NE 8 11 1014.6 - - - - - - - - -
01/03:30am 24.0 ENE 7 8 1014.7 - - - - - - - - -
01/03:15am 24.0 NE 8 - 1014.4 - - - - - - - - -
01/03:00am 24.0 NE 8 9 1014.7 - - - - - - - - -
01/02:30am 24.1 NE 9 10 1014.8 - - - - - - - - -
01/02:15am 24.0 NE 8 - 1014.6 - - - - - - - - -
01/02:00am 24.1 NE 9 11 1015.0 - - - - - - - - -
01/01:30am 24.1 NE 9 11 1015.1 - - - - - - - - -

Other Formats:

Comma delimited format used in spreadsheet applications
http://www.bom.gov.au/fwo/IDQ60701/IDQ60701.94289.axf

JavaScript Object Notation format (JSON) in row-major order
http://www.bom.gov.au/fwo/IDQ60701/IDQ60701.94289.json